Time;durP1;ratioP1;P1;durP2;ratioP2;P2;SDS_P1;SDS_P2;PMS_P1;PMS_P2;Temp;Humidity;BMP_temperature;BMP_pressure;BME280_temperature;BME280_humidity;BME280_pressure;Samples;Min_cycle;Max_cycle;Signal;HPM_P1;HPM_P2
2021/05/05 00:02:21;;;;;;;;;;;18.90;51.40;;;;;;5068406;28;19916;-77
2021/05/05 00:04:47;;;;;;;;;;;18.90;51.50;;;;;;5091155;28;19938;-77
2021/05/05 00:07:12;;;;;;;;;;;18.90;51.40;;;;;;5090452;28;19916;-77
2021/05/05 00:09:38;;;;;;;;;;;18.90;51.40;;;;;;5070116;28;19916;-77
2021/05/05 00:12:03;;;;;;;;;;;18.90;51.40;;;;;;5065689;28;20375;-77
2021/05/05 00:14:29;;;;;;;;;;;18.90;51.30;;;;;;5085966;28;19916;-77
2021/05/05 00:16:54;;;;;;;;;;;18.90;51.30;;;;;;5094732;28;19935;-76
2021/05/05 00:19:20;;;;;;;;;;;18.90;51.30;;;;;;5082703;28;19920;-76
2021/05/05 00:21:45;;;;;;;;;;;18.90;51.30;;;;;;5075011;28;19920;-76
2021/05/05 00:24:11;;;;;;;;;;;18.90;51.30;;;;;;5084902;28;19916;-76
2021/05/05 00:26:36;;;;;;;;;;;18.80;51.30;;;;;;5071162;28;19923;-76
2021/05/05 00:29:02;;;;;;;;;;;18.80;51.30;;;;;;5083468;28;19997;-76
2021/05/05 00:31:27;;;;;;;;;;;18.80;51.30;;;;;;5065362;28;20014;-76
2021/05/05 00:33:53;;;;;;;;;;;18.90;51.30;;;;;;5075877;28;19980;-77
2021/05/05 00:36:18;;;;;;;;;;;18.80;51.20;;;;;;5074800;28;19927;-76
2021/05/05 00:38:46;;;;;;;;;;;18.80;51.20;;;;;;5063410;28;19965;-77
2021/05/05 00:41:12;;;;;;;;;;;18.80;51.20;;;;;;5065935;28;19959;-77
2021/05/05 00:43:37;;;;;;;;;;;18.80;51.10;;;;;;5042127;28;19955;-77
2021/05/05 00:46:03;;;;;;;;;;;18.80;51.10;;;;;;5072658;28;19916;-76
2021/05/05 00:48:28;;;;;;;;;;;18.80;51.10;;;;;;5073166;28;19931;-76
2021/05/05 00:50:54;;;;;;;;;;;18.80;51.10;;;;;;5079494;28;19969;-77
2021/05/05 00:53:19;;;;;;;;;;;18.80;51.10;;;;;;5087244;28;19923;-77
2021/05/05 00:55:45;;;;;;;;;;;18.80;51.10;;;;;;5087066;28;19931;-77
2021/05/05 00:58:10;;;;;;;;;;;18.80;51.10;;;;;;5083899;28;19920;-78
2021/05/05 01:00:36;;;;;;;;;;;18.80;51.10;;;;;;5087044;28;20285;-79
2021/05/05 01:03:01;;;;;;;;;;;18.80;51.10;;;;;;5083817;28;19953;-78
2021/05/05 01:05:27;;;;;;;;;;;18.80;51.00;;;;;;5075979;28;19922;-79
2021/05/05 01:07:52;;;;;;;;;;;18.80;51.10;;;;;;5094647;28;19916;-78
2021/05/05 01:10:17;;;;;;;;;;;18.80;51.10;;;;;;5103599;28;19924;-77
2021/05/05 01:12:43;;;;;;;;;;;18.80;51.10;;;;;;5067967;28;19912;-77
2021/05/05 01:15:09;;;;;;;;;;;18.80;51.10;;;;;;5088907;28;19923;-75
2021/05/05 01:17:35;;;;;;;;;;;18.80;51.10;;;;;;5067042;28;20376;-77
2021/05/05 01:20:01;;;;;;;;;;;18.80;51.10;;;;;;5074123;28;19916;-77
2021/05/05 01:22:26;;;;;;;;;;;18.80;51.10;;;;;;5068847;28;19963;-77
2021/05/05 01:24:52;;;;;;;;;;;18.80;51.10;;;;;;5082214;28;19923;-77
2021/05/05 01:27:17;;;;;;;;;;;18.80;51.10;;;;;;5088800;28;19924;-77
2021/05/05 01:29:43;;;;;;;;;;;18.80;51.10;;;;;;5086133;28;19927;-77
2021/05/05 01:32:08;;;;;;;;;;;18.70;51.00;;;;;;5070953;28;20550;-77
2021/05/05 01:34:33;;;;;;;;;;;18.70;51.00;;;;;;5066482;28;19917;-77
2021/05/05 01:36:59;;;;;;;;;;;18.80;51.10;;;;;;5080070;28;19926;-76
2021/05/05 01:39:24;;;;;;;;;;;18.80;51.10;;;;;;5061261;28;20516;-76
2021/05/05 01:41:50;;;;;;;;;;;18.70;51.00;;;;;;5085877;28;20293;-77
2021/05/05 01:44:15;;;;;;;;;;;18.70;51.00;;;;;;5072595;28;19988;-76
2021/05/05 01:46:47;;;;;;;;;;;18.80;51.10;;;;;;5077548;28;20003;-77
2021/05/05 01:49:19;;;;;;;;;;;18.70;51.10;;;;;;5063130;28;19916;-77
2021/05/05 01:51:45;;;;;;;;;;;18.80;51.10;;;;;;5073575;28;19920;-76
2021/05/05 01:54:10;;;;;;;;;;;18.80;51.10;;;;;;5085074;28;20323;-76
2021/05/05 01:56:36;;;;;;;;;;;18.70;51.00;;;;;;5089651;28;19920;-76
2021/05/05 01:59:01;;;;;;;;;;;18.70;51.00;;;;;;5066402;28;19961;-77
2021/05/05 02:01:27;;;;;;;;;;;18.70;51.00;;;;;;5068152;28;19916;-78
2021/05/05 02:03:52;;;;;;;;;;;18.70;51.00;;;;;;5080292;28;19927;-77
2021/05/05 02:06:17;;;;;;;;;;;18.70;51.00;;;;;;5067239;28;19916;-76
2021/05/05 02:08:43;;;;;;;;;;;18.70;51.00;;;;;;5077706;28;19926;-76
2021/05/05 02:11:08;;;;;;;;;;;18.70;51.00;;;;;;5085515;28;19916;-76
2021/05/05 02:13:34;;;;;;;;;;;18.70;51.00;;;;;;5063065;28;19915;-76
2021/05/05 02:15:59;;;;;;;;;;;18.70;51.00;;;;;;5102675;28;19920;-74
2021/05/05 02:18:25;;;;;;;;;;;18.70;51.00;;;;;;5093052;28;20431;-76
2021/05/05 02:20:51;;;;;;;;;;;18.70;51.00;;;;;;5073202;28;19916;-77
2021/05/05 02:23:16;;;;;;;;;;;18.70;51.00;;;;;;5069304;28;19920;-77
2021/05/05 02:25:42;;;;;;;;;;;18.70;50.90;;;;;;5070922;28;19921;-77
2021/05/05 02:28:09;;;;;;;;;;;18.70;51.00;;;;;;5069713;28;20304;-76
2021/05/05 02:30:34;;;;;;;;;;;18.70;51.00;;;;;;5079699;28;20339;-77
2021/05/05 02:33:00;;;;;;;;;;;18.70;51.00;;;;;;5071174;28;19916;-77
2021/05/05 02:35:25;;;;;;;;;;;18.70;51.10;;;;;;5079765;28;20006;-77
2021/05/05 02:37:51;;;;;;;;;;;18.70;51.00;;;;;;5068787;28;19920;-76
2021/05/05 02:40:16;;;;;;;;;;;18.70;51.00;;;;;;5077812;28;20720;-77
2021/05/05 02:42:42;;;;;;;;;;;18.70;51.00;;;;;;5085060;28;20433;-77
2021/05/05 02:45:08;;;;;;;;;;;18.70;51.00;;;;;;5075726;28;19916;-77
2021/05/05 02:47:33;;;;;;;;;;;18.70;51.00;;;;;;5073045;28;19923;-76
2021/05/05 02:49:59;;;;;;;;;;;18.70;51.00;;;;;;5079003;28;19916;-76
2021/05/05 02:52:24;;;;;;;;;;;18.70;51.00;;;;;;5062152;28;19977;-76
2021/05/05 02:54:50;;;;;;;;;;;18.60;50.90;;;;;;5065625;28;19922;-77
2021/05/05 02:57:15;;;;;;;;;;;18.70;51.00;;;;;;5084696;28;19929;-77
2021/05/05 02:59:40;;;;;;;;;;;18.60;51.00;;;;;;5088399;28;20605;-77
2021/05/05 03:02:06;;;;;;;;;;;18.60;51.00;;;;;;5086896;28;20002;-76
2021/05/05 03:04:31;;;;;;;;;;;18.60;51.00;;;;;;5078598;28;19962;-76
2021/05/05 03:06:57;;;;;;;;;;;18.60;51.00;;;;;;5063870;28;19977;-77
2021/05/05 03:09:24;;;;;;;;;;;18.60;51.00;;;;;;5076722;28;19924;-77
2021/05/05 03:11:51;;;;;;;;;;;18.60;51.00;;;;;;5079770;28;19916;-77
2021/05/05 03:14:16;;;;;;;;;;;18.60;51.00;;;;;;5073443;28;19927;-77
2021/05/05 03:16:41;;;;;;;;;;;18.60;51.00;;;;;;5082085;28;19920;-77
2021/05/05 03:19:07;;;;;;;;;;;18.60;51.00;;;;;;5061790;28;19976;-76
2021/05/05 03:21:32;;;;;;;;;;;18.60;51.00;;;;;;5088387;28;19924;-77
2021/05/05 03:23:58;;;;;;;;;;;18.60;51.00;;;;;;5091182;28;20365;-76
2021/05/05 03:26:23;;;;;;;;;;;18.60;51.00;;;;;;5059872;28;19922;-77
2021/05/05 03:28:49;;;;;;;;;;;18.60;51.10;;;;;;5096711;28;19916;-77
2021/05/05 03:31:14;;;;;;;;;;;18.60;51.00;;;;;;5094033;28;19920;-76
2021/05/05 03:33:39;;;;;;;;;;;18.60;51.10;;;;;;5079066;28;20070;-76
2021/05/05 03:36:06;;;;;;;;;;;18.60;51.00;;;;;;5067558;28;19931;-77
2021/05/05 03:38:31;;;;;;;;;;;18.60;51.00;;;;;;5055730;28;19917;-75
2021/05/05 03:40:57;;;;;;;;;;;18.60;51.10;;;;;;5085684;22;19919;-58
2021/05/05 03:43:23;;;;;;;;;;;18.60;51.10;;;;;;5058008;28;19932;-55
2021/05/05 03:45:48;;;;;;;;;;;18.60;51.20;;;;;;5058859;28;20616;-57
2021/05/05 03:48:14;;;;;;;;;;;18.60;51.10;;;;;;5061365;28;19927;-63
2021/05/05 03:50:40;;;;;;;;;;;18.60;51.10;;;;;;5070130;28;20018;-58
2021/05/05 03:53:05;;;;;;;;;;;18.60;51.10;;;;;;5063637;28;20110;-58
2021/05/05 03:55:31;;;;;;;;;;;18.60;51.10;;;;;;5064828;28;19932;-59
2021/05/05 03:57:56;;;;;;;;;;;18.60;51.10;;;;;;5065597;28;19920;-57
2021/05/05 04:00:22;;;;;;;;;;;18.60;51.10;;;;;;5049645;28;19927;-56
2021/05/05 04:02:47;;;;;;;;;;;18.60;51.10;;;;;;5044678;28;19920;-59
2021/05/05 04:05:13;;;;;;;;;;;18.60;51.00;;;;;;5027041;28;19917;-57
2021/05/05 04:07:38;;;;;;;;;;;18.60;51.00;;;;;;5065236;28;19924;-59
2021/05/05 04:10:04;;;;;;;;;;;18.60;51.60;;;;;;5064811;28;19940;-57
2021/05/05 04:12:30;;;;;;;;;;;18.60;51.10;;;;;;5068471;28;20035;-59
2021/05/05 04:14:56;;;;;;;;;;;18.60;51.00;;;;;;5061530;28;19925;-59
2021/05/05 04:17:21;;;;;;;;;;;18.50;51.00;;;;;;5059499;28;19953;-58
2021/05/05 04:19:47;;;;;;;;;;;18.60;51.00;;;;;;5046117;28;19916;-59
2021/05/05 04:22:12;;;;;;;;;;;18.50;50.90;;;;;;5047643;28;19916;-58
2021/05/05 04:24:38;;;;;;;;;;;18.60;51.00;;;;;;5063028;28;20543;-61
2021/05/05 04:27:03;;;;;;;;;;;18.60;51.00;;;;;;5059537;28;19929;-60
2021/05/05 04:29:29;;;;;;;;;;;18.60;51.00;;;;;;5047927;28;19986;-61
2021/05/05 04:31:54;;;;;;;;;;;18.60;51.00;;;;;;5068497;28;19920;-60
2021/05/05 04:34:20;;;;;;;;;;;18.60;51.00;;;;;;5058880;28;19920;-58
2021/05/05 04:36:45;;;;;;;;;;;18.50;50.90;;;;;;5064097;28;20004;-60
2021/05/05 04:39:11;;;;;;;;;;;18.60;51.00;;;;;;5059915;28;20504;-61
2021/05/05 04:41:36;;;;;;;;;;;18.60;51.00;;;;;;5061865;28;19924;-61
2021/05/05 04:44:02;;;;;;;;;;;18.60;51.00;;;;;;5071269;22;19925;-59
2021/05/05 04:46:27;;;;;;;;;;;18.60;51.00;;;;;;5058885;28;19920;-58
2021/05/05 04:48:53;;;;;;;;;;;18.50;50.90;;;;;;5042270;28;19917;-58
2021/05/05 04:51:18;;;;;;;;;;;18.60;51.00;;;;;;5058829;28;20027;-60
2021/05/05 04:53:44;;;;;;;;;;;18.60;51.00;;;;;;5051721;28;19917;-61
2021/05/05 04:56:09;;;;;;;;;;;18.60;51.00;;;;;;5056055;28;19924;-59
2021/05/05 04:58:35;;;;;;;;;;;18.60;51.10;;;;;;5056315;28;19923;-60
2021/05/05 05:01:00;;;;;;;;;;;18.60;51.10;;;;;;5050010;28;19924;-59
2021/05/05 05:03:26;;;;;;;;;;;18.50;51.50;;;;;;5050389;28;19928;-59
2021/05/05 05:05:51;;;;;;;;;;;18.50;51.70;;;;;;5058441;28;19917;-58
2021/05/05 05:08:17;;;;;;;;;;;18.50;52.10;;;;;;5055679;28;20381;-60
2021/05/05 05:10:42;;;;;;;;;;;18.50;52.10;;;;;;5056397;28;19965;-59
2021/05/05 05:13:08;;;;;;;;;;;18.40;52.10;;;;;;5059814;28;19924;-60
2021/05/05 05:15:33;;;;;;;;;;;18.50;52.10;;;;;;5041979;28;19924;-60
2021/05/05 05:17:59;;;;;;;;;;;18.50;52.10;;;;;;5058158;28;20352;-60
2021/05/05 05:20:24;;;;;;;;;;;18.50;52.00;;;;;;5044209;28;19916;-56
2021/05/05 05:22:54;;;;;;;;;;;18.50;51.90;;;;;;5060970;28;19927;-58
2021/05/05 05:25:20;;;;;;;;;;;18.50;52.10;;;;;;5055941;28;19927;-58
2021/05/05 05:27:45;;;;;;;;;;;18.50;52.60;;;;;;5059736;28;19916;-60
2021/05/05 05:30:11;;;;;;;;;;;18.50;52.70;;;;;;5060704;28;19978;-55
2021/05/05 05:32:36;;;;;;;;;;;18.50;52.80;;;;;;5039424;28;20278;-53
2021/05/05 05:35:02;;;;;;;;;;;18.50;52.80;;;;;;5049971;28;19917;-60
2021/05/05 05:37:28;;;;;;;;;;;18.50;52.80;;;;;;5043343;28;20373;-60
2021/05/05 05:39:53;;;;;;;;;;;18.50;52.70;;;;;;5046579;28;20308;-60
2021/05/05 05:42:19;;;;;;;;;;;18.50;52.50;;;;;;5064308;28;19920;-55
2021/05/05 05:44:44;;;;;;;;;;;18.50;52.30;;;;;;5065396;28;19924;-56
2021/05/05 05:47:09;;;;;;;;;;;18.50;52.20;;;;;;5046649;28;20009;-53
2021/05/05 05:49:35;;;;;;;;;;;18.50;52.50;;;;;;5046040;28;19916;-58
2021/05/05 05:52:00;;;;;;;;;;;18.50;51.60;;;;;;5064393;28;19939;-56
2021/05/05 05:54:26;;;;;;;;;;;18.50;51.30;;;;;;5064392;28;20462;-56
2021/05/05 05:56:51;;;;;;;;;;;18.50;51.10;;;;;;5055785;28;19916;-56
2021/05/05 05:59:17;;;;;;;;;;;18.50;50.90;;;;;;5046577;28;20392;-59
2021/05/05 06:01:42;;;;;;;;;;;18.50;50.60;;;;;;5065055;28;19913;-59
2021/05/05 06:04:08;;;;;;;;;;;18.50;50.70;;;;;;5046530;28;19917;-58
2021/05/05 06:06:33;;;;;;;;;;;18.50;50.60;;;;;;5061269;28;19919;-57
2021/05/05 06:08:59;;;;;;;;;;;18.50;50.70;;;;;;5045083;28;19913;-59
2021/05/05 06:11:24;;;;;;;;;;;18.50;50.80;;;;;;5064661;28;19913;-56
2021/05/05 06:13:49;;;;;;;;;;;18.50;50.70;;;;;;5064430;28;19969;-60
2021/05/05 06:16:15;;;;;;;;;;;18.50;50.80;;;;;;5047653;28;20459;-60
2021/05/05 06:18:40;;;;;;;;;;;18.50;50.80;;;;;;5044681;28;19913;-55
2021/05/05 06:21:07;;;;;;;;;;;18.50;50.80;;;;;;5043986;28;19936;-59
2021/05/05 06:23:32;;;;;;;;;;;18.50;50.90;;;;;;5044427;28;19972;-58
2021/05/05 06:25:58;;;;;;;;;;;18.50;50.90;;;;;;5044546;28;19963;-54
2021/05/05 06:28:23;;;;;;;;;;;18.50;50.90;;;;;;5055752;28;19916;-59
2021/05/05 06:30:48;;;;;;;;;;;18.50;51.00;;;;;;5061889;28;19920;-60
2021/05/05 06:33:14;;;;;;;;;;;18.50;51.10;;;;;;5049837;28;20304;-57
2021/05/05 06:35:39;;;;;;;;;;;18.50;51.20;;;;;;5055942;28;19932;-59
2021/05/05 06:38:05;;;;;;;;;;;18.50;51.20;;;;;;5064084;28;19970;-57
2021/05/05 06:40:30;;;;;;;;;;;18.50;51.20;;;;;;5052369;28;19940;-56
2021/05/05 06:42:56;;;;;;;;;;;18.50;51.10;;;;;;5044133;28;19917;-56
2021/05/05 06:45:22;;;;;;;;;;;18.50;51.10;;;;;;5062716;28;19922;-60
2021/05/05 06:47:47;;;;;;;;;;;18.50;51.10;;;;;;5045803;28;19990;-57
2021/05/05 06:50:13;;;;;;;;;;;18.50;51.10;;;;;;5063479;28;19913;-53
2021/05/05 06:52:39;;;;;;;;;;;18.50;51.00;;;;;;5063985;28;19970;-53
2021/05/05 06:55:04;;;;;;;;;;;18.50;51.00;;;;;;5064202;28;19959;-56
2021/05/05 06:57:30;;;;;;;;;;;18.50;51.00;;;;;;5046656;28;19924;-59
2021/05/05 06:59:55;;;;;;;;;;;18.50;51.00;;;;;;5064174;28;19919;-56
2021/05/05 07:02:21;;;;;;;;;;;18.50;50.90;;;;;;5064369;28;20374;-55
2021/05/05 07:04:47;;;;;;;;;;;18.50;50.90;;;;;;5063057;28;19920;-57
2021/05/05 07:07:13;;;;;;;;;;;18.60;50.90;;;;;;5064346;28;20002;-55
2021/05/05 07:09:38;;;;;;;;;;;18.60;50.90;;;;;;5064099;28;19916;-59
2021/05/05 07:12:04;;;;;;;;;;;18.60;50.90;;;;;;5064139;28;20298;-59
2021/05/05 07:14:29;;;;;;;;;;;18.60;50.90;;;;;;5063237;28;19943;-54
2021/05/05 07:16:55;;;;;;;;;;;18.60;50.90;;;;;;5063208;28;20347;-55
2021/05/05 07:19:20;;;;;;;;;;;18.60;51.20;;;;;;5063237;28;19920;-60
2021/05/05 07:21:46;;;;;;;;;;;18.50;51.50;;;;;;5063574;28;20393;-60
2021/05/05 07:24:11;;;;;;;;;;;18.50;51.60;;;;;;5064074;28;19922;-57
2021/05/05 07:26:37;;;;;;;;;;;18.50;51.70;;;;;;5063932;28;19917;-58
2021/05/05 07:29:03;;;;;;;;;;;18.50;51.80;;;;;;5062905;28;19990;-57
2021/05/05 07:31:28;;;;;;;;;;;18.50;51.80;;;;;;5063813;28;19913;-54
2021/05/05 07:33:55;;;;;;;;;;;18.60;51.70;;;;;;5063209;28;19920;-54
2021/05/05 07:36:25;;;;;;;;;;;18.50;51.70;;;;;;5063585;28;20069;-55
2021/05/05 07:42:18;;;;;;;;;;;18.60;51.40;;;;;;5062366;28;20076;-59
2021/05/05 07:49:20;;;;;;;;;;;18.60;50.20;;;;;;5056759;28;20008;-59
2021/05/05 07:51:45;;;;;;;;;;;18.70;49.80;;;;;;5046194;28;20003;-57
2021/05/05 07:54:11;;;;;;;;;;;18.70;49.40;;;;;;5062843;28;20456;-59
2021/05/05 07:56:36;;;;;;;;;;;18.70;49.00;;;;;;5044312;28;20336;-59
2021/05/05 07:59:02;;;;;;;;;;;18.70;48.70;;;;;;5062856;28;20370;-55
2021/05/05 08:01:29;;;;;;;;;;;18.60;48.40;;;;;;5062767;28;19913;-59
2021/05/05 08:03:54;;;;;;;;;;;18.60;48.10;;;;;;5063631;28;20007;-59
2021/05/05 08:06:19;;;;;;;;;;;18.70;47.90;;;;;;5041694;28;20040;-55
2021/05/05 08:08:45;;;;;;;;;;;18.70;47.80;;;;;;5044495;28;20185;-55
2021/05/05 08:11:10;;;;;;;;;;;18.70;47.50;;;;;;5044051;28;19939;-56
2021/05/05 08:13:36;;;;;;;;;;;18.60;47.20;;;;;;5062092;28;19913;-58
2021/05/05 08:16:01;;;;;;;;;;;18.70;47.10;;;;;;5056986;28;19924;-55
2021/05/05 08:18:27;;;;;;;;;;;18.70;46.90;;;;;;5044031;28;20361;-55
2021/05/05 08:20:52;;;;;;;;;;;18.60;46.70;;;;;;5047430;28;19916;-60
2021/05/05 08:23:19;;;;;;;;;;;18.60;46.60;;;;;;5040681;28;19913;-58
2021/05/05 08:25:45;;;;;;;;;;;18.70;46.50;;;;;;5042274;28;19920;-54
2021/05/05 08:28:10;;;;;;;;;;;18.60;46.30;;;;;;5040745;28;20382;-58
2021/05/05 08:30:36;;;;;;;;;;;18.60;46.00;;;;;;5053474;28;19981;-59
2021/05/05 08:33:01;;;;;;;;;;;18.60;46.00;;;;;;5061735;28;19912;-58
2021/05/05 08:35:27;;;;;;;;;;;18.60;45.80;;;;;;5042042;28;19927;-57
2021/05/05 08:37:52;;;;;;;;;;;18.60;45.80;;;;;;5046107;28;20448;-55
2021/05/05 08:40:18;;;;;;;;;;;18.60;45.70;;;;;;5042003;28;19916;-57
2021/05/05 08:42:43;;;;;;;;;;;18.60;45.50;;;;;;5060381;28;19920;-56
2021/05/05 08:45:10;;;;;;;;;;;18.60;45.50;;;;;;5060574;28;19931;-59
2021/05/05 08:47:36;;;;;;;;;;;18.60;45.50;;;;;;5061127;28;19923;-57
2021/05/05 08:50:02;;;;;;;;;;;18.60;45.30;;;;;;5043135;28;19916;-57
2021/05/05 08:52:27;;;;;;;;;;;18.60;45.30;;;;;;5061888;28;20312;-56
2021/05/05 08:54:53;;;;;;;;;;;18.60;45.20;;;;;;5060761;28;19913;-58
2021/05/05 08:57:21;;;;;;;;;;;18.60;45.80;;;;;;5061389;28;19916;-60
2021/05/05 08:59:46;;;;;;;;;;;18.60;45.20;;;;;;5043164;28;20011;-58
2021/05/05 09:02:12;;;;;;;;;;;18.60;45.20;;;;;;5062618;28;19913;-58
2021/05/05 09:04:38;;;;;;;;;;;18.60;45.30;;;;;;5061934;28;19913;-58
2021/05/05 09:07:03;;;;;;;;;;;18.60;45.10;;;;;;5061283;28;19938;-58
2021/05/05 09:09:36;;;;;;;;;;;18.60;45.10;;;;;;5061323;28;19912;-52
2021/05/05 09:12:14;;;;;;;;;;;18.60;45.40;;;;;;5062047;28;19920;-59
2021/05/05 09:14:48;;;;;;;;;;;18.60;45.50;;;;;;5066527;28;20319;-55
2021/05/05 09:17:17;;;;;;;;;;;18.60;45.80;;;;;;5066478;28;19916;-60
2021/05/05 09:19:43;;;;;;;;;;;18.60;46.10;;;;;;5048022;28;20453;-55
2021/05/05 09:22:08;;;;;;;;;;;18.50;46.10;;;;;;5066068;28;19916;-57
2021/05/05 09:24:37;;;;;;;;;;;18.60;46.20;;;;;;5065113;28;20396;-54
2021/05/05 09:27:04;;;;;;;;;;;18.60;46.10;;;;;;5063974;28;20388;-57
2021/05/05 09:29:41;;;;;;;;;;;18.50;46.00;;;;;;5025951;28;19921;-59
2021/05/05 09:32:07;;;;;;;;;;;18.60;46.20;;;;;;5066496;28;20266;-58
2021/05/05 09:34:33;;;;;;;;;;;18.50;46.20;;;;;;5048373;28;19919;-58
2021/05/05 09:36:59;;;;;;;;;;;18.50;46.20;;;;;;5065778;28;20338;-53
2021/05/05 09:39:26;;;;;;;;;;;18.50;45.90;;;;;;5065727;28;19920;-59
2021/05/05 09:41:51;;;;;;;;;;;18.50;45.70;;;;;;5066625;28;19942;-60
2021/05/05 09:44:16;;;;;;;;;;;18.60;45.60;;;;;;5063234;28;20041;-59
2021/05/05 09:46:46;;;;;;;;;;;18.60;45.50;;;;;;5055575;28;19952;-56
2021/05/05 09:49:32;;;;;;;;;;;18.60;45.50;;;;;;5065766;28;20385;-59
2021/05/05 09:52:01;;;;;;;;;;;18.50;45.30;;;;;;5045210;28;19996;-60
2021/05/05 09:54:28;;;;;;;;;;;18.50;45.10;;;;;;5054444;28;20000;-57
2021/05/05 09:56:53;;;;;;;;;;;18.50;45.10;;;;;;5045986;28;19920;-57
2021/05/05 09:59:20;;;;;;;;;;;18.50;45.00;;;;;;5055965;28;20486;-59
2021/05/05 10:01:58;;;;;;;;;;;18.50;44.80;;;;;;5057602;28;19918;-58
2021/05/05 10:04:23;;;;;;;;;;;18.50;44.80;;;;;;5046186;28;20289;-54
2021/05/05 10:06:49;;;;;;;;;;;18.50;44.70;;;;;;5046162;28;19913;-53
2021/05/05 10:09:14;;;;;;;;;;;18.50;44.70;;;;;;5044190;28;19924;-58
2021/05/05 10:11:40;;;;;;;;;;;18.50;44.40;;;;;;5045022;28;19913;-54
2021/05/05 10:14:06;;;;;;;;;;;18.50;44.40;;;;;;5042895;28;19912;-58
2021/05/05 10:16:35;;;;;;;;;;;18.50;44.40;;;;;;5044242;28;19923;-53
2021/05/05 10:19:00;;;;;;;;;;;18.50;44.10;;;;;;5045043;28;19916;-57
2021/05/05 10:21:26;;;;;;;;;;;18.50;44.20;;;;;;5042674;28;19962;-58
2021/05/05 10:23:52;;;;;;;;;;;18.50;44.00;;;;;;5043965;28;20378;-58
2021/05/05 10:26:18;;;;;;;;;;;18.50;43.90;;;;;;5060842;28;20007;-57
2021/05/05 10:28:44;;;;;;;;;;;18.50;43.90;;;;;;5064790;28;19913;-59
2021/05/05 10:31:15;;;;;;;;;;;18.50;43.80;;;;;;5045355;28;19912;-58
2021/05/05 10:33:42;;;;;;;;;;;18.50;43.80;;;;;;5044501;28;20392;-58
2021/05/05 10:36:26;;;;;;;;;;;18.50;43.70;;;;;;5044461;28;19924;-58
2021/05/05 10:38:52;;;;;;;;;;;18.50;43.60;;;;;;5044375;28;19917;-59
2021/05/05 10:41:20;;;;;;;;;;;18.50;43.50;;;;;;5058180;28;19959;-57
2021/05/05 10:43:52;;;;;;;;;;;18.50;43.20;;;;;;5054926;28;19924;-60
2021/05/05 10:46:34;;;;;;;;;;;18.50;43.20;;;;;;5073579;22;19942;-74
2021/05/05 10:49:00;;;;;;;;;;;18.50;43.30;;;;;;5064687;28;20524;-75
2021/05/05 10:51:26;;;;;;;;;;;18.50;43.40;;;;;;5064413;28;19912;-76
2021/05/05 10:53:51;;;;;;;;;;;18.40;43.80;;;;;;5028300;28;19919;-75
2021/05/05 10:56:20;;;;;;;;;;;18.40;44.00;;;;;;5045602;28;19916;-76
2021/05/05 10:59:03;;;;;;;;;;;18.40;44.30;;;;;;5027591;28;19916;-75
2021/05/05 11:01:35;;;;;;;;;;;18.40;44.40;;;;;;5027870;28;19917;-76
2021/05/05 11:04:01;;;;;;;;;;;18.40;44.60;;;;;;5016750;28;19912;-76
2021/05/05 11:06:30;;;;;;;;;;;18.40;44.80;;;;;;5033533;28;19963;-78
2021/05/05 11:09:15;;;;;;;;;;;18.30;44.90;;;;;;5065970;28;19913;-76
2021/05/05 11:11:41;;;;;;;;;;;18.30;45.30;;;;;;5046752;28;20003;-75
2021/05/05 11:14:06;;;;;;;;;;;18.30;45.60;;;;;;5028325;28;20443;-77
2021/05/05 11:16:50;;;;;;;;;;;18.30;45.80;;;;;;5028197;28;20012;-76
2021/05/05 11:19:35;;;;;;;;;;;18.30;45.90;;;;;;5062499;28;19913;-75
2021/05/05 11:22:00;;;;;;;;;;;18.30;46.30;;;;;;5065044;28;20155;-76
2021/05/05 11:24:26;;;;;;;;;;;18.30;46.50;;;;;;5065974;28;20368;-76
2021/05/05 11:26:52;;;;;;;;;;;18.30;46.70;;;;;;5047140;28;19919;-76
2021/05/05 11:29:28;;;;;;;;;;;18.30;47.00;;;;;;5065870;28;19916;-76
2021/05/05 11:31:54;;;;;;;;;;;18.30;47.20;;;;;;5048064;28;20336;-75
2021/05/05 11:34:23;;;;;;;;;;;18.30;47.40;;;;;;5065108;28;20003;-74
2021/05/05 11:37:03;;;;;;;;;;;18.30;47.60;;;;;;5059733;28;20579;-75
2021/05/05 11:39:41;;;;;;;;;;;18.30;47.60;;;;;;5045199;28;19931;-75
2021/05/05 11:42:13;;;;;;;;;;;18.30;47.60;;;;;;5047724;28;21286;-75
2021/05/05 11:44:45;;;;;;;;;;;18.30;47.60;;;;;;5064775;28;19958;-75
2021/05/05 11:47:17;;;;;;;;;;;18.30;47.60;;;;;;5065299;28;20079;-75
2021/05/05 11:49:43;;;;;;;;;;;18.30;47.60;;;;;;5065666;28;19920;-73
2021/05/05 11:52:21;;;;;;;;;;;18.30;47.60;;;;;;5028828;28;20583;-75
2021/05/05 11:54:48;;;;;;;;;;;18.30;47.70;;;;;;5026940;28;19924;-75
2021/05/05 11:57:14;;;;;;;;;;;18.30;47.60;;;;;;5026225;28;20435;-75
2021/05/05 11:59:39;;;;;;;;;;;18.30;47.70;;;;;;5034646;28;19940;-75
2021/05/05 12:02:05;;;;;;;;;;;18.30;47.70;;;;;;5044583;28;20278;-75
2021/05/05 12:04:40;;;;;;;;;;;18.30;47.70;;;;;;5028008;28;19940;-76
2021/05/05 12:07:07;;;;;;;;;;;18.30;47.70;;;;;;5046572;28;19920;-75
2021/05/05 12:09:33;;;;;;;;;;;18.30;47.70;;;;;;5045889;28;20516;-74
2021/05/05 12:12:08;;;;;;;;;;;18.30;47.70;;;;;;5030928;28;19913;-73
2021/05/05 12:14:33;;;;;;;;;;;18.30;47.80;;;;;;5050906;28;19920;-76
2021/05/05 12:20:04;;;;;;;;;;;18.20;48.20;;;;;;5054825;28;19923;-75
2021/05/05 12:22:30;;;;;;;;;;;18.20;48.50;;;;;;5066405;28;19965;-75
2021/05/05 12:25:09;;;;;;;;;;;18.20;48.60;;;;;;5058100;28;19913;-75
2021/05/05 12:27:35;;;;;;;;;;;18.20;48.70;;;;;;5039341;28;19931;-75
2021/05/05 12:30:01;;;;;;;;;;;18.20;48.70;;;;;;5050743;28;19913;-75
2021/05/05 12:32:45;;;;;;;;;;;18.30;48.70;;;;;;5052170;28;20023;-75
2021/05/05 12:35:11;;;;;;;;;;;18.30;48.80;;;;;;5041391;28;19995;-76
2021/05/05 12:37:37;;;;;;;;;;;18.20;48.70;;;;;;5030446;28;20020;-75
2021/05/05 12:40:03;;;;;;;;;;;18.30;48.70;;;;;;5026680;28;19913;-75
2021/05/05 12:42:35;;;;;;;;;;;18.20;48.70;;;;;;5026678;28;19943;-75
2021/05/05 12:45:05;;;;;;;;;;;18.20;48.70;;;;;;5026513;28;19922;-75
2021/05/05 12:47:30;;;;;;;;;;;18.20;48.80;;;;;;5043221;28;20012;-74
2021/05/05 12:49:56;;;;;;;;;;;18.20;48.90;;;;;;5047757;28;20321;-74
2021/05/05 12:52:25;;;;;;;;;;;18.30;48.90;;;;;;5057404;28;19913;-76
2021/05/05 12:54:51;;;;;;;;;;;18.30;49.20;;;;;;5038980;28;19979;-75
2021/05/05 12:57:16;;;;;;;;;;;18.30;49.40;;;;;;5057954;28;20318;-75
2021/05/05 12:59:42;;;;;;;;;;;18.30;49.60;;;;;;5067633;28;19969;-75
2021/05/05 13:02:08;;;;;;;;;;;18.30;49.90;;;;;;5067554;28;19977;-75
2021/05/05 13:04:34;;;;;;;;;;;18.20;50.10;;;;;;5054602;28;19924;-75
2021/05/05 13:07:00;;;;;;;;;;;18.20;50.50;;;;;;5032184;28;19920;-76
2021/05/05 13:09:25;;;;;;;;;;;18.20;50.90;;;;;;5032169;28;19913;-77
2021/05/05 13:11:53;;;;;;;;;;;18.20;51.30;;;;;;5048364;28;19919;-76
2021/05/05 13:14:34;;;;;;;;;;;18.20;51.90;;;;;;5040503;28;19923;-76
2021/05/05 13:31:14;;;;;;;;;;;18.20;52.80;;;;;;5047845;28;20016;-76
2021/05/05 13:33:39;;;;;;;;;;;18.20;53.00;;;;;;5033507;28;19927;-74
2021/05/05 13:36:05;;;;;;;;;;;18.20;53.10;;;;;;5033774;28;19916;-76
2021/05/05 13:38:31;;;;;;;;;;;18.20;53.30;;;;;;5052382;28;19917;-75
2021/05/05 13:41:00;;;;;;;;;;;18.20;53.30;;;;;;5045457;28;19947;-75
2021/05/05 13:43:31;;;;;;;;;;;18.20;53.40;;;;;;5065313;28;20004;-76
2021/05/05 13:48:48;;;;;;;;;;;18.20;53.50;;;;;;5000148;28;19949;-76
2021/05/05 13:51:22;;;;;;;;;;;18.20;53.50;;;;;;5048976;28;19959;-76
2021/05/05 13:53:50;;;;;;;;;;;18.20;53.10;;;;;;5064133;28;20376;-76
2021/05/05 13:56:16;;;;;;;;;;;18.30;52.90;;;;;;5041831;28;19924;-75
2021/05/05 13:58:42;;;;;;;;;;;18.30;52.60;;;;;;5048408;28;20419;-76
2021/05/05 14:01:08;;;;;;;;;;;18.30;52.30;;;;;;5032615;28;19929;-76
2021/05/05 14:03:33;;;;;;;;;;;18.30;52.30;;;;;;5049793;28;19957;-75
2021/05/05 14:05:59;;;;;;;;;;;18.30;52.10;;;;;;5067980;28;20304;-76
2021/05/05 14:08:25;;;;;;;;;;;18.30;52.00;;;;;;5067197;28;19921;-75
2021/05/05 14:10:51;;;;;;;;;;;18.30;52.10;;;;;;5045315;28;19916;-74
2021/05/05 14:13:17;;;;;;;;;;;18.30;52.00;;;;;;5056010;28;20373;-76
2021/05/05 14:15:42;;;;;;;;;;;18.30;51.90;;;;;;5049522;28;20011;-75
2021/05/05 14:18:08;;;;;;;;;;;18.30;51.90;;;;;;5063172;28;20482;-74
2021/05/05 14:20:34;;;;;;;;;;;18.40;51.70;;;;;;5047049;28;20531;-75
2021/05/05 14:22:59;;;;;;;;;;;18.30;51.70;;;;;;5046911;28;19917;-74
2021/05/05 14:25:25;;;;;;;;;;;18.30;51.70;;;;;;5047202;28;19916;-74
2021/05/05 14:27:52;;;;;;;;;;;18.30;51.60;;;;;;5039207;28;19912;-76
2021/05/05 14:30:17;;;;;;;;;;;18.30;51.60;;;;;;5059028;28;20401;-76
2021/05/05 14:32:44;;;;;;;;;;;18.30;51.60;;;;;;5058364;28;19913;-75
2021/05/05 14:35:13;;;;;;;;;;;18.40;51.60;;;;;;5065816;28;19924;-76
2021/05/05 14:37:38;;;;;;;;;;;18.30;51.50;;;;;;5049726;28;19928;-74
2021/05/05 14:40:05;;;;;;;;;;;18.40;51.60;;;;;;5065822;28;19912;-75
2021/05/05 14:42:35;;;;;;;;;;;18.30;51.50;;;;;;5040566;28;19939;-75